Time;durP1;ratioP1;P1;durP2;ratioP2;P2;SDS_P1;SDS_P2;PMS_P1;PMS_P2;Temp;Humidity;BMP_temperature;BMP_pressure;BME280_temperature;BME280_humidity;BME280_pressure;Samples;Min_cycle;Max_cycle;Signal;HPM_P1;HPM_P2
2023/05/28 08:39:47;;;;;;;7.32;3.40;;;;;;;23.52;36.23;99977.66;1086743;54;20030;-84
2023/05/28 08:40:54;;;;;;;7.10;3.53;;;;;;;23.71;35.44;99980.31;1087095;47;20070;-85
2023/05/28 08:41:59;;;;;;;5.80;3.28;;;;;;;23.84;35.82;99971.13;1087168;46;20030;-86
2023/05/28 08:43:00;;;;;;;5.35;2.60;;;;;;;24.02;35.34;99972.94;1087142;46;20092;-83
2023/05/28 08:44:04;;;;;;;8.88;3.72;;;;;;;23.81;35.52;99977.84;1086941;47;20030;-84
2023/05/28 08:45:07;;;;;;;6.10;3.88;;;;;;;23.67;35.50;99981.88;1087165;47;20038;-84
2023/05/28 08:46:14;;;;;;;8.07;3.67;;;;;;;23.74;35.29;99977.13;1087059;47;20033;-84
2023/05/28 08:47:40;;;;;;;6.60;3.30;;;;;;;23.82;35.24;99974.06;1088453;39;20132;-82
2023/05/28 08:48:53;;;;;;;8.20;4.03;;;;;;;23.91;35.27;99976.44;1089002;39;20892;-85
2023/05/28 08:50:01;;;;;;;6.72;3.38;;;;;;;24.13;34.34;99971.31;1087076;47;20026;-84
2023/05/28 08:51:12;;;;;;;6.50;4.05;;;;;;;24.16;34.78;99970.81;1087911;39;20951;-83
2023/05/28 08:52:20;;;;;;;6.82;3.80;;;;;;;23.88;34.45;99968.75;1087035;47;20054;-83
2023/05/28 08:53:29;;;;;;;7.88;3.67;;;;;;;23.96;34.48;99973.88;1086933;47;20884;-84
2023/05/28 08:54:32;;;;;;;8.05;3.35;;;;;;;24.09;34.58;99968.19;1087107;47;20026;-86
2023/05/28 08:55:39;;;;;;;5.45;2.92;;;;;;;24.33;33.89;99962.75;1086859;47;20022;-86
2023/05/28 08:56:50;;;;;;;7.20;3.63;;;;;;;24.24;34.31;99964.16;1086830;47;20082;-84
2023/05/28 08:58:00;;;;;;;7.72;3.95;;;;;;;23.63;34.83;99969.75;1086708;47;20032;-84
2023/05/28 08:59:05;;;;;;;9.68;4.57;;;;;;;23.82;35.08;99960.41;1086870;47;20033;-84
2023/05/28 09:00:11;;;;;;;7.20;3.95;;;;;;;23.95;35.13;99964.03;1090601;31;20945;-88
2023/05/28 09:01:35;;;;;;;9.43;4.13;;;;;;;23.68;35.72;99962.53;1086488;47;20435;-85
2023/05/28 09:02:46;;;;;;;7.47;3.78;;;;;;;23.71;35.29;99966.66;1086518;47;20967;-85
2023/05/28 09:03:53;;;;;;;7.70;3.72;;;;;;;23.80;35.42;99962.56;1086732;47;20054;-84
2023/05/28 09:05:03;;;;;;;8.55;4.15;;;;;;;23.99;35.32;99957.88;1086893;47;20976;-86
2023/05/28 09:06:31;;;;;;;6.97;3.67;;;;;;;24.20;34.48;99960.25;1087050;39;20783;-85
2023/05/28 09:07:59;;;;;;;7.75;3.67;;;;;;;23.99;35.29;99955.13;1087028;54;20090;-84
2023/05/28 09:09:04;;;;;;;9.30;4.05;;;;;;;24.05;35.28;99953.38;1086898;47;20099;-85
2023/05/28 09:10:32;;;;;;;10.30;4.85;;;;;;;23.90;35.23;99948.31;1086795;54;20056;-85
2023/05/28 09:11:39;;;;;;;8.82;4.13;;;;;;;23.45;35.39;99954.28;1087102;47;20058;-86
2023/05/28 09:12:58;;;;;;;9.38;4.05;;;;;;;23.64;35.12;99952.31;1086950;47;20026;-86
2023/05/28 09:14:11;;;;;;;7.20;3.95;;;;;;;23.99;34.56;99946.94;1086965;47;20086;-83
2023/05/28 09:15:17;;;;;;;7.25;3.75;;;;;;;24.28;34.21;99948.94;1087013;47;20026;-83
2023/05/28 09:16:24;;;;;;;8.45;4.30;;;;;;;24.21;34.39;99946.38;1086905;47;20094;-84
2023/05/28 09:17:36;;;;;;;8.25;3.83;;;;;;;24.01;34.42;99933.03;1086944;47;20957;-84
2023/05/28 09:18:40;;;;;;;7.88;4.28;;;;;;;24.26;34.69;99935.53;1086864;51;20034;-83
2023/05/28 09:19:53;;;;;;;10.93;4.55;;;;;;;24.31;34.13;99940.28;1086987;47;20026;-82
2023/05/28 09:21:00;;;;;;;7.72;3.47;;;;;;;24.38;33.85;99929.25;1086954;47;20026;-87
2023/05/28 09:22:04;;;;;;;9.48;4.53;;;;;;;24.06;34.31;99938.66;1087186;46;20030;-84
2023/05/28 09:23:29;;;;;;;7.75;4.00;;;;;;;24.42;33.62;99933.16;1088300;39;20806;-83
2023/05/28 09:24:57;;;;;;;7.95;4.28;;;;;;;24.52;34.10;99927.09;1088526;39;20752;-85
2023/05/28 09:26:12;;;;;;;6.18;3.63;;;;;;;24.90;33.54;99923.00;1086965;47;20022;-85
2023/05/28 09:27:24;;;;;;;6.47;3.60;;;;;;;25.20;32.79;99919.19;1087016;46;20026;-84
2023/05/28 09:28:29;;;;;;;8.60;3.80;;;;;;;25.07;33.27;99929.34;1087013;47;20030;-84
2023/05/28 09:29:30;;;;;;;6.63;3.55;;;;;;;25.11;33.55;99917.94;1087063;54;20038;-85
2023/05/28 09:30:37;;;;;;;11.98;5.00;;;;;;;24.97;33.80;99928.31;1086926;54;20042;-85
2023/05/28 09:31:39;;;;;;;8.38;3.78;;;;;;;25.03;33.86;99928.16;1087120;54;20035;-81
2023/05/28 09:32:43;;;;;;;6.68;3.72;;;;;;;25.32;33.41;99917.22;1087225;54;21121;-84
2023/05/28 09:33:45;;;;;;;5.70;3.35;;;;;;;25.53;32.98;99923.06;1087214;47;20074;-85
2023/05/28 09:34:51;;;;;;;6.00;3.58;;;;;;;25.54;32.78;99922.00;1087408;54;20021;-84
2023/05/28 09:37:02;;;;;;;8.00;3.95;;;;;;;25.15;32.79;99922.66;1088216;54;20408;-84
2023/05/28 09:38:24;;;;;;;12.00;4.38;;;;;;;24.64;34.00;99927.91;1087362;47;20038;-81
2023/05/28 09:39:35;;;;;;;7.22;3.65;;;;;;;24.61;34.16;99920.19;1089408;39;20772;-84
2023/05/28 09:40:41;;;;;;;8.60;3.85;;;;;;;24.18;34.12;99922.25;1087499;47;20033;-84
2023/05/28 09:41:49;;;;;;;8.63;4.15;;;;;;;24.51;34.14;99917.22;1087545;46;21326;-83
2023/05/28 09:42:53;;;;;;;9.98;4.10;;;;;;;24.60;34.05;99919.38;1087412;46;20029;-83
2023/05/28 09:44:02;;;;;;;8.32;3.72;;;;;;;24.57;33.90;99919.84;1087607;47;21003;-84
2023/05/28 09:46:10;;;;;;;7.10;3.95;;;;;;;24.60;34.00;99924.84;1087638;54;20282;-86
2023/05/28 09:47:18;;;;;;;6.28;3.50;;;;;;;25.08;33.45;99909.13;1087454;47;20026;-85
2023/05/28 09:53:23;;;;;;;8.77;4.20;;;;;;;25.65;32.19;99915.63;1087736;54;20026;-83
2023/05/28 09:54:28;;;;;;;9.10;3.88;;;;;;;25.73;32.06;99919.03;1087615;54;20034;-85
2023/05/28 09:55:37;;;;;;;7.32;3.83;;;;;;;25.91;31.25;99918.78;1087498;54;20042;-83
2023/05/28 09:56:41;;;;;;;6.35;3.47;;;;;;;26.13;31.42;99909.81;1087402;54;20030;-83
2023/05/28 09:57:48;;;;;;;6.80;3.53;;;;;;;25.72;31.66;99912.75;1087191;47;20057;-84
2023/05/28 09:58:56;;;;;;;6.63;3.42;;;;;;;25.62;31.57;99913.38;1087011;54;20726;-85
2023/05/28 10:00:12;;;;;;;8.88;4.03;;;;;;;25.88;31.54;99916.56;1087532;54;20034;-84
2023/05/28 10:01:20;;;;;;;6.25;3.47;;;;;;;26.00;31.16;99903.59;1087561;54;20042;-84
2023/05/28 10:02:34;;;;;;;7.60;3.35;;;;;;;26.24;30.93;99906.16;1086894;54;20047;-84
2023/05/28 10:03:40;;;;;;;10.18;3.53;;;;;;;25.85;30.93;99911.56;1087065;47;20007;-82
2023/05/28 10:04:47;;;;;;;9.45;4.60;;;;;;;25.71;31.40;99916.56;1086842;47;20047;-82
2023/05/28 10:05:52;;;;;;;12.77;3.88;;;;;;;25.64;31.50;99913.97;1086788;47;20034;-82
2023/05/28 10:06:56;;;;;;;8.25;4.22;;;;;;;26.03;30.93;99907.72;1086757;47;20061;-83
2023/05/28 10:08:02;;;;;;;7.00;3.72;;;;;;;25.91;30.63;99907.81;1087105;54;20034;-84
2023/05/28 10:09:04;;;;;;;6.63;3.60;;;;;;;25.97;30.40;99898.63;1087097;47;20046;-83
2023/05/28 10:10:14;;;;;;;8.75;4.10;;;;;;;25.32;30.80;99913.66;1087233;46;20078;-84
2023/05/28 10:11:21;;;;;;;11.35;4.82;;;;;;;24.91;31.55;99908.25;1087196;54;20054;-83
2023/05/28 10:12:28;;;;;;;9.38;4.53;;;;;;;24.58;31.62;99910.56;1087323;54;20124;-84
2023/05/28 10:13:33;;;;;;;9.00;4.10;;;;;;;24.62;31.84;99908.19;1087335;54;20031;-83
2023/05/28 10:14:39;;;;;;;8.93;4.15;;;;;;;24.64;31.93;99905.19;1087482;54;20034;-84
2023/05/28 10:15:43;;;;;;;9.50;4.63;;;;;;;24.44;32.63;99907.28;1086988;46;20027;-85
2023/05/28 10:16:48;;;;;;;9.50;3.83;;;;;;;24.94;31.77;99901.47;1087106;54;20063;-84
2023/05/28 10:17:50;;;;;;;7.45;3.83;;;;;;;24.99;31.46;99904.28;1087390;54;20038;-83
2023/05/28 10:18:56;;;;;;;8.95;4.30;;;;;;;25.31;31.21;99903.78;1086784;47;20026;-85
2023/05/28 10:19:57;;;;;;;11.07;4.28;;;;;;;25.25;31.34;99899.31;1086964;46;20106;-84
2023/05/28 10:21:01;;;;;;;8.43;3.97;;;;;;;25.06;31.47;99905.00;1087277;39;20889;-81
2023/05/28 10:23:07;;;;;;;8.90;4.22;;;;;;;25.53;30.79;99896.56;1087215;54;20014;-82
2023/05/28 10:24:08;;;;;;;6.82;3.72;;;;;;;25.38;30.85;99899.81;1087122;54;20038;-81
2023/05/28 10:25:13;;;;;;;7.95;3.60;;;;;;;25.80;30.17;99892.31;1087406;54;20766;-83
2023/05/28 10:26:18;;;;;;;9.70;3.78;;;;;;;25.84;30.28;99899.78;1087232;54;20102;-82
2023/05/28 10:27:19;;;;;;;7.10;3.70;;;;;;;26.09;29.87;99894.97;1087254;54;20038;-81
2023/05/28 10:28:24;;;;;;;6.10;3.10;;;;;;;26.37;29.72;99884.94;1089581;39;20544;-80
2023/05/28 10:29:25;;;;;;;6.68;3.30;;;;;;;26.47;29.23;99874.13;1087287;54;20034;-80
2023/05/28 10:30:39;;;;;;;8.15;3.80;;;;;;;26.41;28.42;99880.63;1086751;54;20026;-80
2023/05/28 10:31:40;;;;;;;10.73;4.13;;;;;;;25.76;28.90;99881.03;1089693;39;20902;-84
2023/05/28 10:32:45;;;;;;;7.97;4.05;;;;;;;25.68;29.34;99890.50;1087374;54;20031;-84
2023/05/28 10:33:46;;;;;;;10.48;4.80;;;;;;;25.52;29.31;99880.38;1087580;54;21189;-83
2023/05/28 10:34:50;;;;;;;7.43;3.88;;;;;;;25.89;29.09;99885.34;1087454;54;20030;-84
2023/05/28 10:35:53;;;;;;;7.90;3.53;;;;;;;26.37;28.44;99884.94;1087366;54;20065;-84
2023/05/28 10:36:56;;;;;;;5.75;3.08;;;;;;;26.58;27.94;99888.78;1087143;47;20027;-83
2023/05/28 10:38:03;;;;;;;6.88;3.78;;;;;;;26.73;27.95;99879.94;1087152;47;20027;-84
2023/05/28 10:39:07;;;;;;;7.80;4.13;;;;;;;27.00;27.70;99882.72;1087091;47;20800;-84
2023/05/28 10:40:09;;;;;;;7.43;3.17;;;;;;;27.17;27.62;99881.78;1087240;54;20030;-84
2023/05/28 10:42:18;;;;;;;7.10;3.47;;;;;;;27.21;27.02;99889.22;1087214;54;20011;-81
2023/05/28 10:43:40;;;;;;;9.43;3.72;;;;;;;26.83;27.02;99882.78;1086968;47;20026;-83
2023/05/28 10:45:09;;;;;;;8.05;4.05;;;;;;;26.21;27.33;99890.22;1086691;47;20026;-82
2023/05/28 10:46:15;;;;;;;11.77;4.55;;;;;;;26.09;27.87;99890.34;1086461;47;20046;-84
2023/05/28 10:47:19;;;;;;;9.13;3.67;;;;;;;26.40;27.71;99884.44;1086422;47;20944;-83
2023/05/28 10:48:23;;;;;;;7.03;3.22;;;;;;;26.53;27.52;99886.81;1086841;47;20030;-83
2023/05/28 10:49:28;;;;;;;6.90;3.67;;;;;;;26.36;27.57;99875.06;1087247;47;20026;-83
2023/05/28 10:50:29;;;;;;;7.32;3.67;;;;;;;26.04;27.81;99887.47;1087822;47;20060;-82
2023/05/28 10:51:47;;;;;;;8.40;3.92;;;;;;;26.30;27.62;99883.22;1087797;46;20960;-85
2023/05/28 10:53:10;;;;;;;7.20;3.38;;;;;;;26.57;27.29;99890.69;1087690;46;20081;-83
2023/05/28 10:54:15;;;;;;;10.77;4.72;;;;;;;25.98;27.53;99885.75;1087723;46;20027;-84
2023/05/28 10:55:19;;;;;;;7.65;3.85;;;;;;;26.11;27.74;99892.81;1087838;46;20033;-83
2023/05/28 10:56:20;;;;;;;8.75;4.15;;;;;;;25.99;28.26;99895.63;1087774;46;20039;-83
2023/05/28 10:57:24;;;;;;;7.38;3.75;;;;;;;25.93;28.04;99897.47;1087733;46;20155;-82
2023/05/28 10:58:26;;;;;;;7.30;4.07;;;;;;;25.57;28.14;99896.88;1087637;47;20026;-84
2023/05/28 11:00:32;;;;;;;7.07;3.58;;;;;;;25.58;28.09;99894.97;1088189;54;20018;-84
2023/05/28 11:01:38;;;;;;;7.28;3.38;;;;;;;25.39;27.80;99892.44;1087793;47;20030;-85
2023/05/28 11:02:42;;;;;;;8.05;3.75;;;;;;;25.48;27.70;99881.97;1088612;39;20733;-84
2023/05/28 11:03:47;;;;;;;7.18;3.30;;;;;;;25.72;27.49;99879.03;1088244;54;20031;-84
2023/05/28 11:04:52;;;;;;;6.50;3.10;;;;;;;25.99;27.23;99887.41;1087875;46;20111;-84
2023/05/28 11:05:57;;;;;;;9.90;4.35;;;;;;;25.54;28.00;99876.34;1087802;47;20086;-84
2023/05/28 11:06:58;;;;;;;10.07;4.30;;;;;;;25.28;28.00;99880.50;1087853;46;20027;-84
2023/05/28 11:08:02;;;;;;;7.80;4.03;;;;;;;25.43;28.36;99873.66;1088040;54;20034;-84
2023/05/28 11:09:08;;;;;;;8.65;4.20;;;;;;;25.44;28.40;99878.91;1087647;46;20026;-83
2023/05/28 11:10:12;;;;;;;9.32;4.30;;;;;;;24.91;29.10;99880.91;1087746;54;20041;-83
2023/05/28 11:11:17;;;;;;;9.90;4.60;;;;;;;24.80;29.49;99877.13;1087776;46;20033;-83
2023/05/28 11:12:20;;;;;;;7.95;3.80;;;;;;;25.11;29.14;99876.91;1087595;54;20038;-84
2023/05/28 11:13:25;;;;;;;8.70;4.03;;;;;;;25.13;28.83;99872.03;1090459;39;20784;-85
2023/05/28 11:15:42;;;;;;;8.70;4.07;;;;;;;25.15;28.76;99875.31;1088036;54;20026;-85
2023/05/28 11:16:46;;;;;;;8.05;4.03;;;;;;;25.36;28.64;99860.94;1088263;54;20056;-84
2023/05/28 11:17:50;;;;;;;8.63;4.13;;;;;;;25.06;28.91;99867.53;1088240;54;20026;-84
2023/05/28 11:19:01;;;;;;;8.05;4.03;;;;;;;24.95;29.22;99871.13;1088118;54;20038;-84
2023/05/28 11:20:06;;;;;;;8.00;3.65;;;;;;;24.97;29.55;99879.94;1088126;54;20031;-85
2023/05/28 11:21:08;;;;;;;8.35;4.10;;;;;;;24.93;29.31;99873.31;1088002;46;20856;-85
2023/05/28 11:22:12;;;;;;;10.77;4.68;;;;;;;24.87;29.49;99879.72;1087902;46;20033;-86
2023/05/28 11:23:16;;;;;;;11.48;4.72;;;;;;;24.71;29.64;99871.25;1087842;46;20030;-82
2023/05/28 11:24:20;;;;;;;9.20;4.38;;;;;;;24.85;29.57;99873.66;1087908;46;20034;-84
2023/05/28 11:25:25;;;;;;;8.57;4.15;;;;;;;24.82;29.46;99875.00;1087617;54;20027;-83
2023/05/28 11:26:27;;;;;;;7.70;4.10;;;;;;;24.70;29.75;99885.16;1087874;54;20042;-85
2023/05/28 11:27:33;;;;;;;8.57;4.30;;;;;;;24.70;29.58;99885.16;1087637;54;20037;-85
2023/05/28 11:28:37;;;;;;;8.20;4.32;;;;;;;24.67;30.14;99877.41;1087612;54;20038;-86
2023/05/28 11:29:38;;;;;;;9.00;3.80;;;;;;;24.99;29.71;99872.31;1087662;46;20030;-85
2023/05/28 11:30:42;;;;;;;8.23;4.15;;;;;;;25.10;29.38;99878.78;1087584;54;20040;-85
2023/05/28 11:32:57;;;;;;;8.63;4.45;;;;;;;24.85;29.69;99870.94;1088004;54;20026;-84
2023/05/28 11:33:58;;;;;;;10.30;4.13;;;;;;;24.81;29.67;99883.44;1090194;39;20307;-84
2023/05/28 11:35:03;;;;;;;8.27;4.05;;;;;;;24.81;29.54;99875.25;1087729;47;20038;-84
2023/05/28 11:37:15;;;;;;;6.63;3.60;;;;;;;24.99;29.14;99871.47;1088272;54;20027;-83
2023/05/28 11:38:20;;;;;;;7.10;3.88;;;;;;;25.06;29.50;99878.47;1088091;54;20034;-83
2023/05/28 11:39:21;;;;;;;8.00;3.63;;;;;;;25.12;28.94;99859.44;1087639;46;20023;-85
2023/05/28 11:40:25;;;;;;;6.20;3.35;;;;;;;25.26;28.95;99863.50;1087534;47;20034;-84
2023/05/28 11:41:27;;;;;;;7.47;3.63;;;;;;;25.26;28.53;99868.97;1087636;46;20064;-83
2023/05/28 11:42:31;;;;;;;7.20;3.35;;;;;;;25.12;28.75;99862.16;1087606;54;21022;-85
2023/05/28 11:43:32;;;;;;;7.32;4.28;;;;;;;25.23;29.06;99861.25;1087503;46;20022;-85
2023/05/28 11:44:36;;;;;;;9.35;4.10;;;;;;;25.22;29.02;99865.91;1087298;47;20026;-86
2023/05/28 11:45:41;;;;;;;7.53;3.75;;;;;;;25.44;28.79;99859.75;1087193;54;20037;-84
2023/05/28 11:46:42;;;;;;;8.18;3.95;;;;;;;25.25;28.88;99870.03;1087616;46;20731;-84
2023/05/28 11:47:46;;;;;;;9.40;4.15;;;;;;;25.19;29.04;99857.38;1087404;54;20026;-85
2023/05/28 11:48:50;;;;;;;7.38;3.70;;;;;;;25.40;29.17;99874.16;1089224;39;20891;-85
2023/05/28 11:49:54;;;;;;;8.13;3.65;;;;;;;25.29;28.88;99863.00;1087356;46;20026;-83
2023/05/28 11:50:57;;;;;;;6.50;3.78;;;;;;;25.39;28.81;99867.81;1087176;54;20039;-85
2023/05/28 11:52:01;;;;;;;8.48;3.40;;;;;;;25.58;28.60;99862.97;1088794;39;20887;-80
2023/05/28 11:53:02;;;;;;;8.20;3.65;;;;;;;25.45;28.65;99868.78;1087368;54;21162;-84
2023/05/28 11:54:05;;;;;;;7.25;3.78;;;;;;;25.38;28.81;99858.78;1087702;46;21176;-83
2023/05/28 11:55:10;;;;;;;8.32;4.03;;;;;;;25.27;28.46;99850.66;1087559;47;20022;-83
2023/05/28 11:56:12;;;;;;;10.30;4.15;;;;;;;24.96;28.57;99867.31;1087482;46;20125;-84
2023/05/28 11:57:24;;;;;;;9.05;4.18;;;;;;;25.07;27.98;99860.16;1087539;54;20031;-85
2023/05/28 11:58:30;;;;;;;7.60;3.65;;;;;;;25.32;27.96;99857.03;1087507;46;20034;-83
2023/05/28 11:59:34;;;;;;;9.35;4.13;;;;;;;25.45;27.79;99860.56;1087479;47;20026;-85
2023/05/28 12:00:38;;;;;;;7.90;3.63;;;;;;;25.49;27.56;99854.34;1087534;54;20038;-84
2023/05/28 12:01:39;;;;;;;7.53;3.58;;;;;;;25.40;27.49;99855.84;1087127;47;20053;-83
2023/05/28 12:02:46;;;;;;;8.75;3.75;;;;;;;25.17;28.08;99854.03;1087326;46;20030;-84
2023/05/28 12:03:50;;;;;;;9.18;4.60;;;;;;;24.86;28.48;99862.50;1087187;46;20090;-84
2023/05/28 12:07:04;;;;;;;8.65;3.75;;;;;;;24.86;28.51;99862.50;1087249;51;20014;-83
2023/05/28 12:08:08;;;;;;;7.15;3.70;;;;;;;25.09;28.53;99860.72;1087320;54;20026;-85
2023/05/28 12:09:11;;;;;;;9.65;4.15;;;;;;;24.98;28.38;99859.72;1087658;54;20050;-84
2023/05/28 12:10:16;;;;;;;9.02;4.10;;;;;;;25.00;28.15;99857.56;1087596;54;20035;-84
2023/05/28 12:12:23;;;;;;;6.30;3.03;;;;;;;25.01;27.85;99850.19;1088463;39;21067;-84
2023/05/28 12:13:30;;;;;;;5.75;3.25;;;;;;;25.13;27.70;99845.50;1087390;46;20027;-84
2023/05/28 12:14:35;;;;;;;5.70;2.92;;;;;;;25.29;27.58;99841.13;1087146;47;20030;-84
2023/05/28 12:15:38;;;;;;;8.80;2.90;;;;;;;25.42;27.60;99841.91;1087364;54;20041;-83
2023/05/28 12:16:46;;;;;;;7.35;3.85;;;;;;;25.25;28.62;99844.59;1087526;54;20030;-83
2023/05/28 12:17:55;;;;;;;7.97;4.10;;;;;;;25.08;29.05;99848.13;1087338;46;20051;-86
2023/05/28 12:19:04;;;;;;;8.40;4.43;;;;;;;25.01;29.59;99842.84;1088288;39;21146;-84
2023/05/28 12:20:29;;;;;;;8.07;4.10;;;;;;;25.19;29.00;99841.78;1087147;47;20026;-84
2023/05/28 12:21:37;;;;;;;7.53;3.45;;;;;;;25.21;28.83;99836.06;1087552;46;20026;-85
2023/05/28 12:22:40;;;;;;;7.82;4.07;;;;;;;25.32;29.05;99835.16;1087063;54;20139;-84
2023/05/28 12:23:44;;;;;;;8.88;3.80;;;;;;;25.42;28.79;99837.28;1087147;54;20030;-84
2023/05/28 12:24:50;;;;;;;7.30;3.60;;;;;;;25.42;28.62;99837.28;1087738;54;20058;-85
2023/05/28 12:25:54;;;;;;;7.15;3.70;;;;;;;25.27;28.64;99831.53;1087792;54;20034;-83
2023/05/28 12:26:55;;;;;;;10.38;4.35;;;;;;;25.21;28.71;99836.88;1087494;46;20022;-85
2023/05/28 12:27:59;;;;;;;8.93;4.43;;;;;;;25.23;28.75;99834.75;1087199;47;20135;-83
2023/05/28 12:29:03;;;;;;;10.85;4.50;;;;;;;25.03;29.08;99835.19;1087242;47;20045;-84
2023/05/28 12:30:06;;;;;;;6.90;4.03;;;;;;;25.05;29.15;99837.69;1087095;47;20030;-85
2023/05/28 12:31:11;;;;;;;8.00;4.00;;;;;;;25.33;28.76;99834.06;1087160;47;20026;-83
2023/05/28 12:32:13;;;;;;;8.75;4.18;;;;;;;25.45;28.76;99835.94;1087408;54;20144;-84
2023/05/28 12:33:16;;;;;;;7.80;3.95;;;;;;;25.43;28.73;99835.34;1087449;46;20035;-84
2023/05/28 12:34:20;;;;;;;8.07;4.10;;;;;;;25.36;28.72;99828.13;1087385;46;20047;-86
2023/05/28 12:35:24;;;;;;;9.43;4.07;;;;;;;25.15;28.48;99826.94;1089483;39;21188;-84
2023/05/28 12:36:27;;;;;;;8.15;4.07;;;;;;;25.06;28.45;99825.69;1087282;46;20026;-82
2023/05/28 12:37:31;;;;;;;8.00;4.10;;;;;;;25.12;28.04;99827.44;1087380;46;20055;-85
2023/05/28 12:38:32;;;;;;;7.25;3.80;;;;;;;25.28;28.14;99824.94;1087163;54;20026;-83
2023/05/28 12:39:36;;;;;;;7.93;3.67;;;;;;;25.44;27.81;99824.19;1086961;54;20041;-85
2023/05/28 12:40:37;;;;;;;6.78;3.67;;;;;;;25.54;27.17;99824.34;1087086;54;20030;-85
2023/05/28 12:41:41;;;;;;;7.30;4.07;;;;;;;25.37;27.31;99818.84;1087358;46;20026;-85
2023/05/28 12:42:42;;;;;;;10.90;4.60;;;;;;;25.33;27.35;99825.06;1087447;54;20121;-86
2023/05/28 12:43:46;;;;;;;10.10;3.97;;;;;;;25.34;27.60;99827.53;1087488;46;20031;-85
2023/05/28 12:44:47;;;;;;;9.23;3.90;;;;;;;25.51;27.12;99823.97;1087233;54;20070;-83
2023/05/28 12:45:50;;;;;;;8.82;4.35;;;;;;;25.36;27.12;99832.78;1088734;39;20724;-86
2023/05/28 12:46:52;;;;;;;7.60;4.00;;;;;;;25.44;27.13;99828.81;1087107;46;20066;-83
2023/05/28 12:47:56;;;;;;;6.57;3.70;;;;;;;25.65;26.87;99824.47;1087124;46;20038;-84
2023/05/28 12:48:57;;;;;;;7.80;3.70;;;;;;;25.71;26.26;99823.50;1087010;54;21068;-85
2023/05/28 12:50:03;;;;;;;6.50;3.20;;;;;;;25.79;26.41;99822.25;1087018;47;20056;-84
2023/05/28 12:51:07;;;;;;;7.43;3.92;;;;;;;25.87;26.32;99813.59;1087007;47;20034;-83
2023/05/28 12:52:08;;;;;;;8.18;4.15;;;;;;;25.71;26.64;99823.50;1087156;54;20774;-84
2023/05/28 12:53:12;;;;;;;7.18;3.70;;;;;;;25.65;26.58;99813.53;1087140;54;20094;-84
2023/05/28 12:54:13;;;;;;;6.80;4.00;;;;;;;25.79;26.60;99812.09;1087033;46;20027;-85
2023/05/28 12:55:16;;;;;;;8.77;4.03;;;;;;;25.79;26.69;99816.78;1087128;54;20063;-85
2023/05/28 12:56:18;;;;;;;10.10;4.72;;;;;;;25.64;27.00;99812.72;1087258;54;20022;-84
2023/05/28 12:57:21;;;;;;;10.80;5.38;;;;;;;25.30;27.86;99815.44;1087244;54;20060;-85
2023/05/28 12:58:23;;;;;;;10.90;4.70;;;;;;;25.25;27.88;99817.25;1087398;46;20925;-84
2023/05/28 12:59:28;;;;;;;8.30;4.30;;;;;;;25.24;27.69;99813.69;1087284;54;20853;-83
2023/05/28 13:00:29;;;;;;;7.15;4.25;;;;;;;25.26;27.68;99817.00;1087017;47;20023;-86
2023/05/28 13:01:33;;;;;;;8.63;4.75;;;;;;;25.50;27.42;99806.75;1086950;54;20042;-86
2023/05/28 13:02:34;;;;;;;8.57;4.40;;;;;;;25.66;27.12;99807.81;1086972;46;20094;-85
2023/05/28 13:03:38;;;;;;;6.63;4.13;;;;;;;25.76;27.25;99806.31;1086913;47;20033;-84
2023/05/28 13:04:39;;;;;;;6.22;3.25;;;;;;;25.87;26.90;99808.13;1086965;47;20022;-83
2023/05/28 13:05:46;;;;;;;8.45;3.50;;;;;;;25.89;26.82;99805.94;1087001;54;20042;-83
2023/05/28 13:06:47;;;;;;;8.45;3.83;;;;;;;25.67;27.29;99806.75;1087331;54;20067;-87
2023/05/28 13:07:51;;;;;;;6.75;4.05;;;;;;;25.72;27.35;99796.94;1087044;46;20957;-82
2023/05/28 13:09:58;;;;;;;7.95;3.80;;;;;;;25.58;27.36;99801.94;1087643;54;20852;-83
2023/05/28 13:10:59;;;;;;;7.38;3.80;;;;;;;25.81;27.09;99801.75;1087457;54;20845;-83
2023/05/28 13:12:03;;;;;;;7.22;4.22;;;;;;;25.96;26.96;99811.25;1087413;54;20041;-84
2023/05/28 13:15:29;;;;;;;7.82;4.32;;;;;;;25.51;27.31;99802.09;1087046;47;20011;-85
2023/05/28 13:16:30;;;;;;;10.23;3.78;;;;;;;25.57;27.32;99800.28;1087418;54;20037;-83
2023/05/28 13:17:34;;;;;;;9.35;4.35;;;;;;;25.32;27.22;99807.78;1087171;46;20042;-83
2023/05/28 13:19:41;;;;;;;7.63;4.15;;;;;;;25.48;27.62;99794.41;1087337;47;20082;-84
2023/05/28 13:20:45;;;;;;;9.40;4.53;;;;;;;25.59;27.54;99798.13;1087168;47;20996;-83
2023/05/28 13:21:49;;;;;;;8.57;4.03;;;;;;;25.50;27.67;99795.81;1087552;54;20042;-84
2023/05/28 13:22:50;;;;;;;8.68;3.70;;;;;;;25.67;27.79;99806.75;1087452;54;21042;-83
2023/05/28 13:23:54;;;;;;;8.88;4.47;;;;;;;25.79;27.53;99800.34;1087400;54;21061;-84
2023/05/28 13:24:55;;;;;;;7.78;4.07;;;;;;;25.91;27.34;99795.56;1087645;39;20896;-86
2023/05/28 13:25:59;;;;;;;9.20;4.45;;;;;;;25.78;28.15;99798.69;1087195;47;20026;-83
2023/05/28 13:27:00;;;;;;;9.80;4.68;;;;;;;25.86;28.14;99792.78;1087043;54;20026;-83
2023/05/28 13:28:03;;;;;;;8.98;4.60;;;;;;;26.00;28.34;99790.50;1086980;47;21002;-84
2023/05/28 13:29:06;;;;;;;6.63;4.15;;;;;;;26.01;28.39;99795.72;1087073;47;20049;-83
2023/05/28 13:30:11;;;;;;;7.53;4.93;;;;;;;25.89;28.64;99792.25;1087098;54;20997;-83
2023/05/28 13:31:12;;;;;;;7.43;4.45;;;;;;;25.94;28.74;99792.34;1087475;46;20026;-83
2023/05/28 13:32:16;;;;;;;10.15;4.57;;;;;;;25.83;28.89;99787.78;1087011;47;20854;-82
2023/05/28 13:33:17;;;;;;;8.85;4.72;;;;;;;25.86;28.89;99792.78;1087279;54;20056;-83
2023/05/28 13:34:20;;;;;;;8.82;4.70;;;;;;;25.63;28.96;99791.88;1087184;47;20137;-83
2023/05/28 13:35:24;;;;;;;6.47;3.55;;;;;;;25.83;28.95;99787.78;1087200;46;20053;-84
2023/05/28 13:36:29;;;;;;;8.45;4.63;;;;;;;25.95;28.71;99791.25;1086907;54;20030;-83
2023/05/28 13:37:33;;;;;;;7.63;4.20;;;;;;;26.10;28.72;99792.56;1087030;54;20030;-84
2023/05/28 13:38:34;;;;;;;10.25;4.78;;;;;;;26.00;28.96;99788.56;1087129;54;20046;-84
2023/05/28 13:39:38;;;;;;;7.43;4.20;;;;;;;26.11;28.59;99789.59;1087012;46;20026;-84
2023/05/28 13:40:39;;;;;;;8.20;3.65;;;;;;;26.16;28.52;99791.56;1086795;54;20465;-85
2023/05/28 13:41:44;;;;;;;7.53;4.25;;;;;;;26.21;28.41;99793.53;1086950;47;20026;-83
2023/05/28 13:42:48;;;;;;;6.78;4.15;;;;;;;26.38;28.12;99782.47;1086853;47;20112;-84
2023/05/28 13:43:53;;;;;;;6.55;3.75;;;;;;;26.51;27.83;99773.03;1087041;54;20064;-84
2023/05/28 13:44:54;;;;;;;8.25;4.40;;;;;;;26.28;28.00;99784.03;1086938;54;20026;-84
2023/05/28 13:45:58;;;;;;;9.40;4.72;;;;;;;25.98;28.22;99785.25;1087088;54;20034;-84
2023/05/28 13:46:59;;;;;;;10.88;4.45;;;;;;;25.77;28.41;99783.34;1087168;46;20022;-84
2023/05/28 13:48:03;;;;;;;9.13;5.10;;;;;;;25.69;28.59;99779.94;1087036;47;20022;-84
2023/05/28 13:50:09;;;;;;;8.63;4.70;;;;;;;25.81;28.75;99781.72;1087616;54;21344;-85
2023/05/28 13:52:17;;;;;;;8.25;4.30;;;;;;;25.79;28.48;99786.66;1087569;54;20098;-81
2023/05/28 13:54:29;;;;;;;7.47;4.20;;;;;;;25.94;28.22;99788.75;1087464;54;20027;-84
2023/05/28 13:55:30;;;;;;;6.68;4.10;;;;;;;26.08;27.84;99779.09;1087519;54;20033;-82
2023/05/28 13:56:33;;;;;;;7.13;4.03;;;;;;;26.21;28.00;99780.66;1087014;47;20031;-83
2023/05/28 13:57:34;;;;;;;9.50;4.80;;;;;;;25.97;28.57;99778.16;1087341;54;20030;-82
2023/05/28 13:58:38;;;;;;;9.80;4.82;;;;;;;25.74;29.08;99779.19;1087392;46;20062;-84
2023/05/28 13:59:39;;;;;;;8.55;4.80;;;;;;;25.42;29.50;99779.81;1087190;54;20035;-83
2023/05/28 14:00:43;;;;;;;8.82;4.70;;;;;;;25.48;29.76;99773.34;1090070;39;20376;-83
2023/05/28 14:01:44;;;;;;;9.27;4.43;;;;;;;25.50;30.01;99773.09;1087073;54;20026;-81
2023/05/28 14:02:48;;;;;;;9.65;5.22;;;;;;;25.51;29.86;99774.72;1087107;47;20038;-83
2023/05/28 14:03:49;;;;;;;11.63;5.10;;;;;;;25.46;29.81;99774.66;1087064;47;20054;-84
2023/05/28 14:04:53;;;;;;;9.65;4.75;;;;;;;25.54;29.50;99776.97;1087332;39;20942;-83
2023/05/28 14:05:55;;;;;;;8.77;5.13;;;;;;;25.44;29.11;99776.81;1087037;47;20026;-83
2023/05/28 14:06:59;;;;;;;9.60;5.03;;;;;;;25.52;29.09;99777.25;1087015;54;20055;-83
2023/05/28 14:08:02;;;;;;;8.40;4.18;;;;;;;25.79;29.07;99772.97;1087087;54;20050;-84
2023/05/28 14:09:07;;;;;;;7.40;4.25;;;;;;;25.93;28.80;99776.97;1087021;54;20086;-84
2023/05/28 14:10:08;;;;;;;8.68;4.85;;;;;;;26.04;28.59;99771.66;1087003;47;21232;-83
2023/05/28 14:11:12;;;;;;;8.40;5.18;;;;;;;25.96;28.56;99773.75;1086937;47;20980;-84